createdAt,value
2018-10-18T00:00:51.112Z,134.33
2018-10-18T00:03:19.372Z,145.80
2018-10-18T00:05:47.452Z,134.43
2018-10-18T00:08:15.705Z,130.70
2018-10-18T00:10:43.780Z,134.70
2018-10-18T00:13:11.960Z,142.07
2018-10-18T00:15:40.173Z,132.50
2018-10-18T00:18:08.436Z,150.93
2018-10-18T00:20:36.500Z,126.93
2018-10-18T00:23:04.661Z,142.23
2018-10-18T00:25:32.823Z,132.03
2018-10-18T00:28:01.249Z,133.67
2018-10-18T00:30:29.424Z,113.17
2018-10-18T00:32:57.665Z,130.20
2018-10-18T00:35:25.831Z,140.90
2018-10-18T00:37:54.049Z,135.70
2018-10-18T00:40:22.241Z,129.67
2018-10-18T00:42:50.389Z,151.23
2018-10-18T00:45:18.577Z,141.37
2018-10-18T00:47:46.732Z,128.63
2018-10-18T00:50:14.961Z,130.20
2018-10-18T00:52:43.142Z,115.37
2018-10-18T00:55:11.934Z,121.97
2018-10-18T00:57:40.842Z,126.70
2018-10-18T01:00:09.706Z,118.73
2018-10-18T01:02:37.822Z,133.13
2018-10-18T01:05:06.011Z,125.20
2018-10-18T01:07:34.152Z,131.32
2018-10-18T01:10:02.328Z,124.90
2018-10-18T01:12:30.566Z,138.40
2018-10-18T01:14:58.620Z,118.37
2018-10-18T01:17:26.817Z,135.47
2018-10-18T01:19:54.983Z,109.57
2018-10-18T01:22:23.144Z,117.83
2018-10-18T01:24:51.300Z,122.90
2018-10-18T01:27:19.469Z,122.57
2018-10-18T01:29:47.641Z,111.33
2018-10-18T01:32:15.866Z,126.83
2018-10-18T01:34:44.004Z,134.83
2018-10-18T01:37:12.180Z,124.77
2018-10-18T01:39:40.345Z,126.53
2018-10-18T01:42:08.609Z,113.63
2018-10-18T01:44:36.661Z,126.20
2018-10-18T01:47:04.819Z,114.43
2018-10-18T01:49:32.992Z,125.67
2018-10-18T01:52:01.181Z,120.60
2018-10-18T01:54:29.385Z,124.93
2018-10-18T01:56:57.552Z,109.60
2018-10-18T01:59:25.753Z,111.53
2018-10-18T02:01:53.937Z,124.47
2018-10-18T02:04:22.078Z,112.50
2018-10-18T02:06:50.245Z,128.77
2018-10-18T02:09:18.402Z,133.30
2018-10-18T02:11:46.545Z,124.00
2018-10-18T02:14:14.688Z,136.90
2018-10-18T02:16:43.047Z,135.73
2018-10-18T02:19:11.277Z,118.67
2018-10-18T02:21:39.385Z,145.23
2018-10-18T02:24:07.601Z,130.77
2018-10-18T02:26:35.749Z,134.20
2018-10-18T02:29:03.910Z,147.90
2018-10-18T02:31:32.120Z,149.53
2018-10-18T02:34:00.285Z,154.13
2018-10-18T02:36:28.509Z,170.43
2018-10-18T02:38:56.668Z,193.33
2018-10-18T02:41:24.819Z,189.83
2018-10-18T02:43:53.023Z,204.13
2018-10-18T02:46:21.177Z,219.47
2018-10-18T02:48:49.346Z,243.50
2018-10-18T02:51:17.514Z,237.07
2018-10-18T02:53:45.690Z,242.30
2018-10-18T02:56:13.832Z,251.50
2018-10-18T02:58:41.988Z,247.40
2018-10-18T03:01:10.156Z,262.57
2018-10-18T03:03:38.330Z,236.20
2018-10-18T03:06:06.639Z,251.07
2018-10-18T03:08:34.731Z,244.77
2018-10-18T03:11:02.890Z,222.87
2018-10-18T03:13:31.086Z,227.13
2018-10-18T03:15:59.502Z,236.40
2018-10-18T03:18:27.593Z,249.67
2018-10-18T03:20:55.796Z,234.10
2018-10-18T03:23:24.724Z,240.80
2018-10-18T03:25:52.908Z,246.83
2018-10-18T03:28:21.076Z,241.77
2018-10-18T03:30:49.262Z,237.80
2018-10-18T03:33:17.413Z,223.07
2018-10-18T03:35:45.576Z,221.73
2018-10-18T03:38:13.741Z,227.17
2018-10-18T03:40:41.917Z,221.43
2018-10-18T03:43:10.088Z,221.53
2018-10-18T03:45:38.280Z,192.47
2018-10-18T03:48:06.461Z,195.23
2018-10-18T03:50:34.653Z,201.60
2018-10-18T03:53:02.804Z,194.63
2018-10-18T03:55:30.957Z,203.43
2018-10-18T03:57:59.125Z,188.37
2018-10-18T04:00:27.286Z,185.60
2018-10-18T04:02:55.450Z,178.97
2018-10-18T04:05:23.630Z,173.80
2018-10-18T04:07:51.779Z,173.20
2018-10-18T04:10:19.959Z,177.33
2018-10-18T04:12:48.162Z,198.83
2018-10-18T04:15:16.333Z,190.93
2018-10-18T04:17:44.497Z,200.90
2018-10-18T04:20:12.667Z,190.97
2018-10-18T04:22:40.902Z,194.47
2018-10-18T04:25:09.185Z,192.57
2018-10-18T04:27:37.380Z,189.77
2018-10-18T04:30:06.267Z,210.43
2018-10-18T04:32:34.381Z,182.23
2018-10-18T04:35:02.629Z,204.70
2018-10-18T04:37:30.918Z,208.10
2018-10-18T04:39:59.012Z,195.97
2018-10-18T04:42:27.174Z,184.47
2018-10-18T04:44:55.350Z,185.33
2018-10-18T04:47:23.598Z,167.50
2018-10-18T04:49:51.684Z,168.30
2018-10-18T04:52:19.829Z,164.03
2018-10-18T04:54:47.963Z,183.33
2018-10-18T04:57:16.149Z,187.43
2018-10-18T04:59:44.313Z,157.57
2018-10-18T05:02:12.814Z,172.47
2018-10-18T05:04:51.181Z,188.80
2018-10-18T05:07:19.425Z,175.03
2018-10-18T05:09:47.530Z,164.13
2018-10-18T05:12:15.725Z,159.07
2018-10-18T05:14:44.037Z,168.00
2018-10-18T05:17:12.202Z,167.80
2018-10-18T05:19:40.377Z,152.77
2018-10-18T05:22:08.629Z,147.97
2018-10-18T05:24:36.765Z,149.63
2018-10-18T05:27:05.303Z,145.47
2018-10-18T05:29:33.481Z,136.37
2018-10-18T05:32:01.679Z,135.67
2018-10-18T05:34:29.892Z,149.17
2018-10-18T05:36:58.108Z,135.40
2018-10-18T05:39:26.992Z,144.47
2018-10-18T05:41:55.221Z,147.93
2018-10-18T05:44:23.371Z,137.83
2018-10-18T05:46:51.610Z,133.90
2018-10-18T05:49:19.867Z,147.70
2018-10-18T05:51:47.957Z,120.50
2018-10-18T05:54:16.276Z,130.40
2018-10-18T05:56:44.325Z,133.10
2018-10-18T05:59:12.500Z,134.33
2018-10-18T06:01:40.697Z,151.23
2018-10-18T06:04:08.848Z,142.50
2018-10-18T06:06:37.049Z,133.63
2018-10-18T06:09:09.292Z,138.43
2018-10-18T06:11:37.494Z,136.43
2018-10-18T06:14:05.703Z,135.80
2018-10-18T06:16:33.878Z,125.40
2018-10-18T06:19:02.118Z,145.03
2018-10-18T06:21:30.344Z,120.83
2018-10-18T06:23:58.542Z,133.40
2018-10-18T06:26:26.693Z,112.13
2018-10-18T06:28:54.988Z,100.90
2018-10-18T06:31:23.192Z,116.60
2018-10-18T06:33:51.341Z,115.70
2018-10-18T06:36:19.514Z,101.40
2018-10-18T06:38:47.708Z,118.17
2018-10-18T06:41:15.956Z,125.57
2018-10-18T06:43:44.183Z,115.70
2018-10-18T06:46:13.664Z,127.57
2018-10-18T06:48:42.347Z,111.90
2018-10-18T06:51:10.810Z,117.60
2018-10-18T06:53:39.385Z,106.30
2018-10-18T06:56:07.572Z,119.93
2018-10-18T06:58:35.736Z,116.20
2018-10-18T07:01:04.040Z,121.03
2018-10-18T07:03:32.257Z,106.40
2018-10-18T07:06:00.734Z,134.63
2018-10-18T07:08:28.870Z,138.07
2018-10-18T07:10:57.319Z,104.97
2018-10-18T07:13:25.445Z,139.03
2018-10-18T07:15:53.639Z,132.23
2018-10-18T07:18:21.794Z,128.03
2018-10-18T07:20:49.951Z,128.43
2018-10-18T07:23:18.210Z,120.13
2018-10-18T07:25:46.381Z,135.67
2018-10-18T07:28:14.541Z,131.47
2018-10-18T07:30:42.686Z,127.70
2018-10-18T07:33:10.866Z,135.30
2018-10-18T07:35:39.544Z,122.72
2018-10-18T07:38:07.725Z,122.90
2018-10-18T07:40:35.897Z,114.17
2018-10-18T07:43:04.037Z,123.13
2018-10-18T07:45:32.303Z,119.30
2018-10-18T07:48:00.500Z,103.87
2018-10-18T07:50:28.675Z,117.93
2018-10-18T07:52:56.925Z,110.47
2018-10-18T07:55:25.073Z,102.67
2018-10-18T07:57:53.293Z,122.87
2018-10-18T08:00:21.700Z,100.00
2018-10-18T08:02:49.702Z,113.23
2018-10-18T08:05:17.868Z,130.40
2018-10-18T08:07:46.041Z,104.17
2018-10-18T08:10:15.447Z,102.20
2018-10-18T08:12:43.624Z,107.13
2018-10-18T08:15:12.941Z,134.90
2018-10-18T08:17:41.810Z,108.03
2018-10-18T08:20:10.500Z,99.67
2018-10-18T08:22:39.154Z,116.90
2018-10-18T08:25:07.319Z,103.37
2018-10-18T08:27:35.871Z,102.37
2018-10-18T08:30:04.824Z,95.20
2018-10-18T08:32:33.053Z,96.47
2018-10-18T08:35:01.278Z,100.37
2018-10-18T08:37:29.503Z,88.70
2018-10-18T08:39:57.600Z,98.33
2018-10-18T08:42:25.783Z,91.80
2018-10-18T08:44:54.045Z,89.93
2018-10-18T08:47:22.236Z,92.57
2018-10-18T08:49:50.452Z,82.67
2018-10-18T08:52:18.706Z,74.07
2018-10-18T08:54:46.929Z,91.83
2018-10-18T08:57:15.103Z,80.07
2018-10-18T08:59:43.260Z,85.57
2018-10-18T09:02:11.428Z,85.60
2018-10-18T09:04:39.665Z,93.73
2018-10-18T09:07:08.012Z,79.50
2018-10-18T09:09:36.176Z,79.80
2018-10-18T09:12:04.506Z,76.33
2018-10-18T09:14:32.696Z,79.03
2018-10-18T09:17:00.860Z,84.67
2018-10-18T09:19:29.011Z,78.77
2018-10-18T09:21:57.212Z,77.60
2018-10-18T09:24:25.449Z,84.83
2018-10-18T09:26:53.720Z,86.00
2018-10-18T09:29:21.880Z,107.67
2018-10-18T09:31:50.089Z,119.07
2018-10-18T09:34:18.257Z,84.67
2018-10-18T09:36:46.538Z,77.03
2018-10-18T09:39:14.828Z,94.90
2018-10-18T09:41:42.985Z,84.27
2018-10-18T09:44:11.200Z,91.60
2018-10-18T09:46:39.358Z,87.47
2018-10-18T09:49:07.538Z,93.47
2018-10-18T09:51:35.840Z,93.83
2018-10-18T09:54:04.195Z,95.40
2018-10-18T09:56:32.989Z,93.07
2018-10-18T09:59:01.479Z,83.60
2018-10-18T10:01:34.931Z,91.13
2018-10-18T10:04:03.153Z,78.80
2018-10-18T10:06:31.360Z,86.83
2018-10-18T10:08:59.576Z,83.03
2018-10-18T10:11:27.744Z,75.53
2018-10-18T10:13:55.964Z,72.10
2018-10-18T10:16:24.214Z,89.70
2018-10-18T10:18:53.043Z,87.20
2018-10-18T10:21:21.218Z,89.50
2018-10-18T10:23:49.440Z,93.50
2018-10-18T10:26:17.598Z,79.70
2018-10-18T10:28:45.750Z,85.53
2018-10-18T10:31:14.010Z,75.27
2018-10-18T10:33:42.154Z,80.03
2018-10-18T10:36:10.317Z,86.47
2018-10-18T10:38:38.937Z,72.57
2018-10-18T10:41:07.338Z,81.57
2018-10-18T10:43:35.517Z,76.90
2018-10-18T10:46:03.860Z,85.77
2018-10-18T10:48:32.066Z,66.73
2018-10-18T10:51:00.249Z,72.77
2018-10-18T10:53:28.401Z,79.57
2018-10-18T10:55:56.652Z,76.07
2018-10-18T10:58:24.812Z,69.93
2018-10-18T11:01:24.807Z,85.63
2018-10-18T11:03:54.151Z,74.43
2018-10-18T11:06:22.716Z,79.67
2018-10-18T11:08:50.882Z,82.87
2018-10-18T11:11:19.564Z,74.23
2018-10-18T11:13:47.883Z,76.17
2018-10-18T11:16:16.060Z,69.97
2018-10-18T11:18:44.214Z,73.63
2018-10-18T11:21:13.915Z,75.87
2018-10-18T11:23:42.011Z,64.80
2018-10-18T11:26:10.197Z,76.93
2018-10-18T11:28:38.373Z,64.33
2018-10-18T11:31:06.521Z,68.50
2018-10-18T11:33:34.714Z,63.77
2018-10-18T11:36:03.026Z,68.90
2018-10-18T11:38:31.157Z,59.67
2018-10-18T11:40:59.334Z,61.60
2018-10-18T11:43:27.493Z,63.73
2018-10-18T11:45:55.681Z,59.47
2018-10-18T11:48:23.956Z,55.83
2018-10-18T11:50:53.072Z,56.80
2018-10-18T11:53:21.236Z,75.87
2018-10-18T11:55:49.501Z,58.03
2018-10-18T11:58:17.676Z,56.00
2018-10-18T12:00:45.932Z,53.50
2018-10-18T12:03:14.140Z,55.00
2018-10-18T12:05:42.414Z,60.93
2018-10-18T12:08:10.600Z,61.80
2018-10-18T12:10:38.768Z,57.30
2018-10-18T12:13:06.929Z,62.50
2018-10-18T12:15:35.189Z,54.00
2018-10-18T12:18:03.351Z,47.07
2018-10-18T12:20:31.540Z,45.93
2018-10-18T12:22:59.762Z,46.60
2018-10-18T12:25:27.920Z,51.80
2018-10-18T12:27:56.174Z,41.13
2018-10-18T12:30:24.328Z,37.70
2018-10-18T12:32:53.188Z,39.47
2018-10-18T12:35:21.414Z,45.40
2018-10-18T12:37:49.641Z,41.67
2018-10-18T12:40:17.866Z,39.70
2018-10-18T12:42:47.451Z,43.50
2018-10-18T12:45:15.645Z,41.13
2018-10-18T12:47:43.805Z,35.60
2018-10-18T12:50:12.100Z,30.90
2018-10-18T12:52:40.124Z,41.13
2018-10-18T12:55:08.259Z,40.63
2018-10-18T12:57:36.408Z,42.57
2018-10-18T13:00:05.400Z,41.30
2018-10-18T13:02:33.665Z,43.67
2018-10-18T13:05:01.829Z,51.57
2018-10-18T13:07:30.001Z,46.20
2018-10-18T13:09:58.188Z,42.93
2018-10-18T13:12:26.611Z,40.10
2018-10-18T13:14:54.593Z,38.93
2018-10-18T13:17:22.830Z,35.40
2018-10-18T13:19:51.066Z,36.33
2018-10-18T13:22:19.252Z,44.50
2018-10-18T13:24:47.487Z,37.03
2018-10-18T13:27:15.665Z,34.37
2018-10-18T13:29:43.901Z,36.23
2018-10-18T13:32:12.140Z,34.97
2018-10-18T13:34:40.320Z,30.33
2018-10-18T13:37:08.633Z,24.97
2018-10-18T13:39:36.791Z,26.93
2018-10-18T13:42:05.711Z,25.87
2018-10-18T13:44:33.877Z,22.30
2018-10-18T13:47:02.052Z,20.93
2018-10-18T13:49:30.219Z,15.03
2018-10-18T13:51:58.435Z,16.30
2018-10-18T13:54:26.645Z,24.13
2018-10-18T13:56:55.048Z,22.70
2018-10-18T13:59:34.892Z,16.47
2018-10-18T14:02:03.051Z,15.30
2018-10-18T14:04:31.255Z,14.07
2018-10-18T14:06:59.465Z,15.47
2018-10-18T14:09:27.646Z,15.33
2018-10-18T14:11:55.824Z,16.03
2018-10-18T14:14:24.012Z,18.30
2018-10-18T14:16:52.328Z,15.47
2018-10-18T14:19:20.495Z,19.53
2018-10-18T14:21:48.719Z,12.97
2018-10-18T14:24:16.905Z,16.27
2018-10-18T14:26:45.052Z,15.30
2018-10-18T14:29:13.296Z,14.17
2018-10-18T14:31:41.493Z,14.67
2018-10-18T14:34:09.917Z,18.33
2018-10-18T14:36:38.104Z,21.37
2018-10-18T14:39:07.365Z,17.80
2018-10-18T14:41:35.665Z,16.47
2018-10-18T14:44:03.985Z,19.10
2018-10-18T14:46:32.069Z,13.53
2018-10-18T14:49:00.224Z,12.90
2018-10-18T14:51:28.496Z,10.80
2018-10-18T14:53:56.754Z,17.03
2018-10-18T14:56:25.123Z,13.73
2018-10-18T14:58:53.494Z,12.03
2018-10-18T15:01:21.714Z,11.50
2018-10-18T15:03:49.912Z,10.80
2018-10-18T15:06:18.228Z,11.43
2018-10-18T15:08:46.445Z,13.27
2018-10-18T15:11:21.218Z,13.33
2018-10-18T15:13:49.375Z,7.43
2018-10-18T15:16:17.558Z,8.17
2018-10-18T15:18:45.725Z,6.47
2018-10-18T15:21:13.882Z,8.90
2018-10-18T15:23:42.072Z,10.43
2018-10-18T15:26:10.315Z,10.33
2018-10-18T15:28:38.406Z,5.50
2018-10-18T15:31:06.783Z,8.50
2018-10-18T15:33:35.008Z,7.73
2018-10-18T15:36:03.381Z,6.90
2018-10-18T15:38:31.674Z,12.20
2018-10-18T15:40:59.763Z,5.50
2018-10-18T15:43:27.916Z,4.53
2018-10-18T15:45:56.081Z,5.97
2018-10-18T15:48:24.287Z,6.43
2018-10-18T15:50:52.478Z,8.03
2018-10-18T15:53:20.737Z,5.10
2018-10-18T15:55:48.748Z,5.53
2018-10-18T15:58:16.908Z,6.30
2018-10-18T16:00:51.529Z,6.60
2018-10-18T16:03:19.718Z,7.40
2018-10-18T16:05:47.952Z,12.10
2018-10-18T16:08:16.093Z,14.13
2018-10-18T16:13:19.047Z,15.63
2018-10-18T16:15:47.220Z,6.97
2018-10-18T16:18:15.445Z,12.07
2018-10-18T16:20:43.562Z,8.70
2018-10-18T16:23:11.930Z,9.20
2018-10-18T16:25:40.052Z,7.23
2018-10-18T16:28:08.262Z,7.40
2018-10-18T16:30:36.449Z,17.47
2018-10-18T16:33:04.807Z,7.57
2018-10-18T16:35:32.949Z,7.67
2018-10-18T16:38:01.375Z,10.90
2018-10-18T16:40:29.661Z,10.93
2018-10-18T16:42:57.903Z,8.13
2018-10-18T16:45:26.142Z,11.13
2018-10-18T16:47:54.506Z,11.97
2018-10-18T16:50:22.621Z,19.07
2018-10-18T16:52:50.816Z,10.27
2018-10-18T16:55:19.104Z,12.10
2018-10-18T16:57:47.272Z,10.60
2018-10-18T17:00:15.503Z,14.37
2018-10-18T17:02:43.684Z,12.40
2018-10-18T17:05:11.906Z,14.70
2018-10-18T17:07:40.111Z,13.80
2018-10-18T17:10:08.476Z,11.93
2018-10-18T17:12:36.637Z,13.07
2018-10-18T17:15:05.697Z,12.63
2018-10-18T17:17:34.050Z,10.00
2018-10-18T17:20:02.346Z,11.50
2018-10-18T17:22:30.601Z,9.73
2018-10-18T17:24:58.825Z,14.47
2018-10-18T17:27:27.141Z,13.63
2018-10-18T17:29:55.356Z,14.37
2018-10-18T17:32:23.546Z,11.40
2018-10-18T17:34:51.661Z,24.30
2018-10-18T17:37:20.007Z,15.83
2018-10-18T17:39:48.199Z,9.10
2018-10-18T17:42:16.620Z,14.47
2018-10-18T17:44:44.817Z,7.60
2018-10-18T17:47:13.103Z,11.53
2018-10-18T17:49:41.419Z,6.27
2018-10-18T17:52:10.095Z,7.33
2018-10-18T17:54:38.586Z,11.30
2018-10-18T17:57:06.814Z,11.37
2018-10-18T17:59:35.002Z,11.50
2018-10-18T18:02:03.206Z,17.03
2018-10-18T18:04:31.337Z,14.03
2018-10-18T18:06:59.590Z,13.43
2018-10-18T18:09:27.708Z,17.23
2018-10-18T18:11:55.853Z,21.87
2018-10-18T18:14:24.060Z,12.10
2018-10-18T18:16:52.220Z,9.03
2018-10-18T18:19:20.392Z,11.17
2018-10-18T18:21:48.570Z,9.07
2018-10-18T18:24:16.851Z,9.70
2018-10-18T18:26:45.675Z,11.53
2018-10-18T18:31:55.173Z,10.23
2018-10-18T18:34:23.360Z,16.80
2018-10-18T18:36:51.605Z,12.63
2018-10-18T18:39:19.815Z,14.53
2018-10-18T18:41:48.009Z,19.47
2018-10-18T18:44:16.310Z,15.40
2018-10-18T18:46:44.536Z,17.03
2018-10-18T18:49:13.016Z,15.27
2018-10-18T18:51:41.298Z,12.70
2018-10-18T18:54:09.492Z,13.00
2018-10-18T18:56:37.696Z,14.97
2018-10-18T18:59:06.525Z,15.27
2018-10-18T19:01:34.705Z,23.37
2018-10-18T19:04:02.886Z,19.13
2018-10-18T19:06:31.129Z,19.63
2018-10-18T19:08:59.332Z,19.80
2018-10-18T19:11:27.602Z,21.63
2018-10-18T19:13:55.844Z,25.33
2018-10-18T19:16:23.978Z,22.70
2018-10-18T19:18:52.190Z,29.17
2018-10-18T19:21:20.468Z,23.70
2018-10-18T19:23:48.672Z,26.00
2018-10-18T19:26:16.965Z,26.13
2018-10-18T19:28:45.162Z,34.07
2018-10-18T19:31:13.235Z,32.30
2018-10-18T19:33:41.477Z,39.43
2018-10-18T19:36:09.656Z,37.17
2018-10-18T19:38:37.921Z,32.90
2018-10-18T19:41:06.053Z,36.53
2018-10-18T19:43:34.247Z,37.90
2018-10-18T19:46:02.494Z,43.80
2018-10-18T19:48:30.696Z,36.70
2018-10-18T19:50:58.921Z,38.33
2018-10-18T19:53:27.139Z,37.47
2018-10-18T19:55:55.917Z,35.30
2018-10-18T19:58:24.946Z,42.47
2018-10-18T20:00:54.430Z,39.90
2018-10-18T20:03:22.757Z,35.97
2018-10-18T20:05:51.000Z,36.40
2018-10-18T20:08:19.344Z,41.37
2018-10-18T20:10:47.626Z,33.77
2018-10-18T20:13:15.846Z,35.60
2018-10-18T20:15:44.024Z,42.23
2018-10-18T20:18:12.305Z,37.77
2018-10-18T20:20:40.444Z,36.87
2018-10-18T20:23:08.639Z,41.03
2018-10-18T20:25:36.955Z,38.30
2018-10-18T20:28:05.712Z,41.20
2018-10-18T20:30:33.913Z,40.90
2018-10-18T20:33:02.229Z,38.60
2018-10-18T20:35:30.418Z,42.17
2018-10-18T20:37:58.577Z,38.33
2018-10-18T20:40:26.859Z,38.47
2018-10-18T20:42:55.037Z,37.10
2018-10-18T20:45:29.376Z,41.37
2018-10-18T20:47:57.882Z,36.57
2018-10-18T20:50:26.053Z,43.17
2018-10-18T20:52:54.252Z,43.83
2018-10-18T20:55:22.436Z,43.43
2018-10-18T20:57:50.613Z,43.30
2018-10-18T21:00:18.857Z,40.83
2018-10-18T21:02:47.056Z,44.27
2018-10-18T21:05:15.256Z,40.20
2018-10-18T21:07:43.451Z,38.20
2018-10-18T21:10:11.648Z,36.17
2018-10-18T21:12:39.849Z,41.70
2018-10-18T21:15:08.091Z,33.13
2018-10-18T21:17:36.241Z,41.53
2018-10-18T21:20:04.809Z,40.40
2018-10-18T21:22:32.993Z,35.50
2018-10-18T21:25:01.194Z,33.37
2018-10-18T21:27:29.412Z,39.23
2018-10-18T21:29:57.587Z,38.83
2018-10-18T21:32:25.753Z,37.23
2018-10-18T21:34:54.213Z,40.17
2018-10-18T21:37:22.372Z,41.47
2018-10-18T21:39:50.520Z,43.13
2018-10-18T21:42:18.722Z,36.07
2018-10-18T21:44:47.297Z,40.17
2018-10-18T21:47:16.489Z,39.43
2018-10-18T21:49:44.634Z,42.03
2018-10-18T21:52:12.850Z,33.90
2018-10-18T21:54:40.995Z,33.73
2018-10-18T21:57:09.264Z,46.63
2018-10-18T21:59:37.376Z,38.00
2018-10-18T22:02:05.708Z,35.40
2018-10-18T22:04:33.890Z,35.57
2018-10-18T22:07:02.132Z,37.67
2018-10-18T22:09:30.267Z,40.30
2018-10-18T22:11:58.636Z,36.93
2018-10-18T22:14:26.890Z,35.63
2018-10-18T22:16:55.008Z,38.33
2018-10-18T22:19:23.187Z,35.47
2018-10-18T22:21:51.344Z,40.07
2018-10-18T22:24:19.537Z,37.73
2018-10-18T22:26:47.749Z,38.23
2018-10-18T22:29:16.030Z,35.20
2018-10-18T22:31:44.130Z,38.00
2018-10-18T22:34:12.322Z,39.67
2018-10-18T22:36:40.505Z,41.87
2018-10-18T22:39:10.091Z,36.13
2018-10-18T22:41:38.205Z,36.77
2018-10-18T22:44:06.505Z,41.97
2018-10-18T22:46:34.731Z,34.73
2018-10-18T22:49:02.902Z,44.47
2018-10-18T22:51:31.068Z,41.13
2018-10-18T22:53:59.250Z,32.80
2018-10-18T22:56:27.424Z,38.03
2018-10-18T22:58:55.649Z,37.93
2018-10-18T23:01:23.810Z,35.97
2018-10-18T23:03:51.973Z,43.23
2018-10-18T23:06:20.164Z,34.80
2018-10-18T23:08:48.320Z,31.57
2018-10-18T23:11:16.550Z,30.97
2018-10-18T23:13:44.743Z,30.13
2018-10-18T23:16:12.984Z,33.93
2018-10-18T23:18:41.206Z,31.23
2018-10-18T23:21:09.457Z,37.53
2018-10-18T23:23:37.608Z,34.43
2018-10-18T23:26:05.794Z,25.83
2018-10-18T23:28:33.972Z,31.87
2018-10-18T23:31:02.188Z,31.23
2018-10-18T23:33:30.373Z,35.53
2018-10-18T23:35:58.580Z,26.93
2018-10-18T23:38:26.780Z,28.87
2018-10-18T23:40:54.972Z,30.67
2018-10-18T23:43:23.168Z,31.10
2018-10-18T23:45:53.503Z,29.60
2018-10-18T23:48:22.314Z,27.53
2018-10-18T23:50:50.924Z,28.63
2018-10-18T23:53:19.128Z,33.57
2018-10-18T23:55:47.291Z,28.70
2018-10-18T23:58:15.490Z,29.17
